createdAt,value
2018-12-18T00:00:16.053Z,101695.69
2018-12-18T00:02:47.385Z,101688.13
2018-12-18T00:05:21.952Z,101691.17
2018-12-18T00:07:51.237Z,101688.85
2018-12-18T00:10:20.511Z,101695.85
2018-12-18T00:12:49.878Z,101690.99
2018-12-18T00:15:19.309Z,101698.05
2018-12-18T00:17:49.636Z,101706.64
2018-12-18T00:20:19.024Z,101709.95
2018-12-18T00:22:48.316Z,101700.57
2018-12-18T00:25:17.612Z,101693.09
2018-12-18T00:27:46.990Z,101687.86
2018-12-18T00:30:16.681Z,101693.04
2018-12-18T00:32:45.923Z,101698.37
2018-12-18T00:35:16.454Z,101700.57
2018-12-18T00:37:45.936Z,101701.89
2018-12-18T00:40:15.375Z,101698.89
2018-12-18T00:42:44.931Z,101697.61
2018-12-18T00:45:14.287Z,101694.87
2018-12-18T00:47:44.057Z,101686.04
2018-12-18T00:50:13.476Z,101687.80
2018-12-18T00:52:42.796Z,101693.55
2018-12-18T00:55:12.751Z,101699.69
2018-12-18T00:57:42.359Z,101693.09
2018-12-18T01:00:11.878Z,101693.91
2018-12-18T01:02:41.234Z,101688.52
2018-12-18T01:05:10.499Z,101693.21
2018-12-18T01:07:39.981Z,101684.63
2018-12-18T01:10:09.555Z,101684.63
2018-12-18T01:12:38.836Z,101688.06
2018-12-18T01:15:08.191Z,101699.00
2018-12-18T01:17:37.560Z,101695.48
2018-12-18T01:20:06.912Z,101699.25
2018-12-18T01:22:36.248Z,101696.45
2018-12-18T01:25:05.933Z,101687.66
2018-12-18T01:27:35.204Z,101695.19
2018-12-18T01:30:05.825Z,101693.71
2018-12-18T01:32:35.213Z,101695.03
2018-12-18T01:35:05.239Z,101696.81
2018-12-18T01:37:34.519Z,101697.17
2018-12-18T01:40:03.951Z,101696.65
2018-12-18T01:42:33.359Z,101705.50
2018-12-18T01:45:02.960Z,101710.39
2018-12-18T01:47:32.198Z,101711.59
2018-12-18T01:50:01.677Z,101707.03
2018-12-18T01:52:31.144Z,101708.86
2018-12-18T01:55:00.598Z,101707.53
2018-12-18T01:57:29.916Z,101712.09
2018-12-18T01:59:59.428Z,101708.73
2018-12-18T02:02:28.786Z,101707.69
2018-12-18T02:04:58.119Z,101714.66
2018-12-18T02:07:27.597Z,101709.78
2018-12-18T02:09:56.905Z,101712.73
2018-12-18T02:12:26.355Z,101708.58
2018-12-18T02:14:55.871Z,101704.11
2018-12-18T02:17:25.115Z,101704.41
2018-12-18T02:19:54.468Z,101701.16
2018-12-18T02:22:23.801Z,101713.37
2018-12-18T02:24:53.303Z,101709.34
2018-12-18T02:27:22.663Z,101717.21
2018-12-18T02:29:52.026Z,101708.81
2018-12-18T02:32:21.295Z,101706.01
2018-12-18T02:34:50.750Z,101714.58
2018-12-18T02:37:20.169Z,101717.48
2018-12-18T02:39:49.515Z,101719.59
2018-12-18T02:42:18.784Z,101713.55
2018-12-18T02:44:48.134Z,101720.86
2018-12-18T02:47:17.831Z,101722.00
2018-12-18T02:49:47.067Z,101730.25
2018-12-18T02:52:16.369Z,101723.22
2018-12-18T02:54:45.674Z,101725.24
2018-12-18T02:57:14.995Z,101725.78
2018-12-18T02:59:44.296Z,101723.16
2018-12-18T03:02:13.787Z,101724.46
2018-12-18T03:04:43.272Z,101729.64
2018-12-18T03:07:12.606Z,101729.88
2018-12-18T03:09:41.989Z,101732.51
2018-12-18T03:12:11.271Z,101735.64
2018-12-18T03:14:40.865Z,101731.61
2018-12-18T03:17:10.112Z,101724.91
2018-12-18T03:19:39.496Z,101721.28
2018-12-18T03:22:08.827Z,101718.28
2018-12-18T03:24:38.141Z,101717.87
2018-12-18T03:27:07.399Z,101718.52
2018-12-18T03:29:36.738Z,101725.46
2018-12-18T03:32:10.771Z,101720.68
2018-12-18T03:34:40.512Z,101721.83
2018-12-18T03:37:09.863Z,101723.39
2018-12-18T03:39:39.125Z,101719.56
2018-12-18T03:42:08.393Z,101726.91
2018-12-18T03:44:37.749Z,101724.95
2018-12-18T03:47:07.079Z,101726.73
2018-12-18T03:49:36.468Z,101727.59
2018-12-18T03:52:05.760Z,101724.14
2018-12-18T03:54:35.224Z,101724.42
2018-12-18T03:57:04.618Z,101720.37
2018-12-18T03:59:33.981Z,101724.11
2018-12-18T04:02:03.421Z,101727.16
2018-12-18T04:04:35.778Z,101724.05
2018-12-18T04:07:04.228Z,101725.23
2018-12-18T04:09:33.481Z,101729.55
2018-12-18T04:12:08.882Z,101732.95
2018-12-18T04:14:38.186Z,101735.11
2018-12-18T04:17:07.569Z,101733.66
2018-12-18T04:19:36.966Z,101740.58
2018-12-18T04:22:06.457Z,101739.45
2018-12-18T04:24:35.763Z,101741.45
2018-12-18T04:27:05.145Z,101745.49
2018-12-18T04:29:34.416Z,101743.61
2018-12-18T04:32:03.762Z,101740.56
2018-12-18T04:34:33.195Z,101746.36
2018-12-18T04:37:02.629Z,101739.11
2018-12-18T04:39:32.069Z,101745.41
2018-12-18T04:42:01.543Z,101745.86
2018-12-18T04:44:30.868Z,101742.69
2018-12-18T04:47:00.180Z,101748.00
2018-12-18T04:49:29.644Z,101747.12
2018-12-18T04:51:59.119Z,101750.25
2018-12-18T04:54:28.440Z,101755.15
2018-12-18T04:56:57.987Z,101752.78
2018-12-18T04:59:27.359Z,101756.64
2018-12-18T05:01:56.728Z,101758.42
2018-12-18T05:04:26.118Z,101762.46
2018-12-18T05:06:55.426Z,101759.94
2018-12-18T05:09:25.000Z,101764.59
2018-12-18T05:11:54.355Z,101761.85
2018-12-18T05:14:23.599Z,101765.19
2018-12-18T05:16:52.849Z,101771.23
2018-12-18T05:19:22.250Z,101762.32
2018-12-18T05:21:51.825Z,101761.27
2018-12-18T05:24:21.160Z,101765.44
2018-12-18T05:26:50.735Z,101766.77
2018-12-18T05:29:20.073Z,101766.23
2018-12-18T05:31:49.342Z,101767.44
2018-12-18T05:34:18.786Z,101771.30
2018-12-18T05:36:48.046Z,101770.80
2018-12-18T05:39:17.404Z,101774.32
2018-12-18T05:41:46.991Z,101772.80
2018-12-18T05:44:16.822Z,101782.56
2018-12-18T05:46:46.303Z,101774.26
2018-12-18T05:49:15.920Z,101777.50
2018-12-18T05:51:45.299Z,101773.45
2018-12-18T05:54:15.414Z,101768.34
2018-12-18T05:56:44.758Z,101767.02
2018-12-18T05:59:14.427Z,101767.14
2018-12-18T06:01:44.342Z,101773.52
2018-12-18T06:04:13.951Z,101770.73
2018-12-18T06:06:43.319Z,101772.63
2018-12-18T06:09:12.612Z,101770.66
2018-12-18T06:11:41.919Z,101770.78
2018-12-18T06:14:13.020Z,101765.00
2018-12-18T06:16:42.464Z,101769.66
2018-12-18T06:19:12.415Z,101768.59
2018-12-18T06:21:41.814Z,101768.48
2018-12-18T06:24:11.329Z,101774.05
2018-12-18T06:26:40.673Z,101778.10
2018-12-18T06:29:09.981Z,101784.41
2018-12-18T06:31:39.404Z,101790.45
2018-12-18T06:34:08.694Z,101790.83
2018-12-18T06:36:37.972Z,101799.72
2018-12-18T06:39:14.053Z,101799.00
2018-12-18T06:41:43.318Z,101803.45
2018-12-18T06:44:12.682Z,101799.46
2018-12-18T06:46:41.984Z,101802.00
2018-12-18T06:49:11.277Z,101802.46
2018-12-18T06:51:40.631Z,101801.14
2018-12-18T06:54:10.121Z,101802.64
2018-12-18T06:56:39.459Z,101806.23
2018-12-18T06:59:08.766Z,101797.86
2018-12-18T07:01:38.043Z,101798.20
2018-12-18T07:04:07.600Z,101799.98
2018-12-18T07:06:37.128Z,101803.27
2018-12-18T07:09:08.807Z,101804.31
2018-12-18T07:11:38.203Z,101806.45
2018-12-18T07:14:07.525Z,101812.55
2018-12-18T07:16:37.230Z,101818.39
2018-12-18T07:19:06.647Z,101818.00
2018-12-18T07:21:36.101Z,101822.28
2018-12-18T07:24:06.344Z,101825.73
2018-12-18T07:26:35.734Z,101831.86
2018-12-18T07:29:04.953Z,101840.50
2018-12-18T07:31:34.413Z,101839.95
2018-12-18T07:34:03.735Z,101837.56
2018-12-18T07:36:33.076Z,101840.34
2018-12-18T07:39:02.417Z,101842.59
2018-12-18T07:41:31.776Z,101836.98
2018-12-18T07:44:01.222Z,101839.23
2018-12-18T07:46:30.665Z,101842.63
2018-12-18T07:49:00.052Z,101835.72
2018-12-18T07:51:29.361Z,101844.60
2018-12-18T07:53:58.780Z,101842.95
2018-12-18T07:56:28.435Z,101847.11
2018-12-18T07:58:59.136Z,101842.15
2018-12-18T08:01:28.824Z,101849.96
2018-12-18T08:03:58.290Z,101859.28
2018-12-18T08:06:27.609Z,101865.28
2018-12-18T08:08:56.967Z,101867.42
2018-12-18T08:11:26.284Z,101869.43
2018-12-18T08:13:55.537Z,101864.88
2018-12-18T08:16:24.827Z,101874.31
2018-12-18T08:18:54.344Z,101864.97
2018-12-18T08:21:24.676Z,101866.94
2018-12-18T08:23:53.995Z,101871.20
2018-12-18T08:26:23.246Z,101871.25
2018-12-18T08:28:52.580Z,101869.00
2018-12-18T08:31:21.959Z,101865.41
2018-12-18T08:33:51.324Z,101875.84
2018-12-18T08:36:20.609Z,101882.41
2018-12-18T08:38:50.206Z,101877.45
2018-12-18T08:41:19.669Z,101874.52
2018-12-18T08:43:49.154Z,101878.90
2018-12-18T08:46:18.933Z,101884.90
2018-12-18T08:48:48.203Z,101887.31
2018-12-18T08:51:17.773Z,101884.70
2018-12-18T08:53:47.060Z,101892.05
2018-12-18T08:56:16.415Z,101886.83
2018-12-18T08:58:45.888Z,101882.13
2018-12-18T09:01:15.144Z,101874.25
2018-12-18T09:03:44.424Z,101874.13
2018-12-18T09:06:13.891Z,101875.92
2018-12-18T09:08:43.295Z,101889.84
2018-12-18T09:11:12.591Z,101881.36
2018-12-18T09:13:42.143Z,101884.69
2018-12-18T09:16:17.077Z,101881.17
2018-12-18T09:18:46.453Z,101872.14
2018-12-18T09:21:15.778Z,101871.86
2018-12-18T09:23:45.165Z,101874.80
2018-12-18T09:26:14.836Z,101878.52
2018-12-18T09:28:44.206Z,101878.44
2018-12-18T09:31:13.720Z,101867.16
2018-12-18T09:33:42.956Z,101872.06
2018-12-18T09:36:12.318Z,101868.16
2018-12-18T09:38:47.588Z,101873.99
2018-12-18T09:41:22.687Z,101876.24
2018-12-18T09:43:58.957Z,101879.16
2018-12-18T09:46:29.441Z,101874.48
2018-12-18T09:48:59.039Z,101860.91
2018-12-18T09:51:28.687Z,101864.48
2018-12-18T09:53:58.272Z,101864.68
2018-12-18T09:56:28.708Z,101864.08
2018-12-18T09:58:58.086Z,101862.05
2018-12-18T10:01:27.559Z,101860.14
2018-12-18T10:03:57.166Z,101855.38
2018-12-18T10:06:26.502Z,101855.83
2018-12-18T10:08:56.139Z,101852.25
2018-12-18T10:11:25.548Z,101851.23
2018-12-18T10:13:55.382Z,101850.30
2018-12-18T10:16:24.885Z,101851.23
2018-12-18T10:18:54.350Z,101848.98
2018-12-18T10:21:23.720Z,101853.03
2018-12-18T10:23:53.063Z,101849.91
2018-12-18T10:26:22.695Z,101848.39
2018-12-18T10:28:52.010Z,101841.76
2018-12-18T10:31:21.341Z,101843.55
2018-12-18T10:33:51.052Z,101838.36
2018-12-18T10:36:20.353Z,101835.12
2018-12-18T10:38:49.819Z,101833.18
2018-12-18T10:41:19.126Z,101837.97
2018-12-18T10:43:48.451Z,101828.95
2018-12-18T10:46:17.803Z,101828.34
2018-12-18T10:48:47.154Z,101832.32
2018-12-18T10:51:17.519Z,101826.88
2018-12-18T10:53:46.754Z,101821.64
2018-12-18T10:56:16.056Z,101820.44
2018-12-18T10:58:45.387Z,101819.84
2018-12-18T11:01:18.885Z,101810.49
2018-12-18T11:03:48.339Z,101811.23
2018-12-18T11:06:17.660Z,101805.42
2018-12-18T11:08:46.916Z,101811.01
2018-12-18T11:11:16.185Z,101808.62
2018-12-18T11:13:45.636Z,101805.17
2018-12-18T11:16:15.092Z,101808.29
2018-12-18T11:18:44.419Z,101807.95
2018-12-18T11:21:13.667Z,101803.97
2018-12-18T11:23:43.060Z,101801.49
2018-12-18T11:26:12.448Z,101812.20
2018-12-18T11:28:41.689Z,101806.95
2018-12-18T11:31:11.120Z,101808.98
2018-12-18T11:33:41.447Z,101806.72
2018-12-18T11:36:16.232Z,101812.03
2018-12-18T11:38:42.158Z,101805.84
2018-12-18T11:41:11.474Z,101803.58
2018-12-18T11:43:41.029Z,101797.64
2018-12-18T11:46:10.339Z,101789.30
2018-12-18T11:48:39.656Z,101790.42
2018-12-18T11:51:08.923Z,101790.52
2018-12-18T11:53:38.255Z,101791.59
2018-12-18T11:56:07.555Z,101788.22
2018-12-18T11:58:36.854Z,101772.58
2018-12-18T12:01:06.221Z,101775.33
2018-12-18T12:03:35.567Z,101779.69
2018-12-18T12:06:05.106Z,101782.03
2018-12-18T12:08:34.433Z,101773.52
2018-12-18T12:11:03.791Z,101772.86
2018-12-18T12:13:33.065Z,101772.33
2018-12-18T12:16:02.397Z,101774.36
2018-12-18T12:18:31.691Z,101775.56
2018-12-18T12:21:01.025Z,101767.99
2018-12-18T12:23:30.293Z,101763.80
2018-12-18T12:26:01.718Z,101769.93
2018-12-18T12:28:31.106Z,101766.69
2018-12-18T12:31:00.399Z,101762.06
2018-12-18T12:33:29.686Z,101758.25
2018-12-18T12:35:59.275Z,101760.64
2018-12-18T12:38:28.576Z,101761.97
2018-12-18T12:40:57.838Z,101762.36
2018-12-18T12:43:27.194Z,101769.93
2018-12-18T12:45:56.487Z,101767.95
2018-12-18T12:48:29.951Z,101769.05
2018-12-18T12:50:59.213Z,101768.52
2018-12-18T12:53:28.547Z,101763.21
2018-12-18T12:55:57.919Z,101755.02
2018-12-18T12:58:27.349Z,101748.87
2018-12-18T13:00:56.606Z,101745.53
2018-12-18T13:03:25.859Z,101749.27
2018-12-18T13:05:55.189Z,101757.67
2018-12-18T13:08:24.488Z,101758.70
2018-12-18T13:10:53.809Z,101759.00
2018-12-18T13:13:23.319Z,101753.95
2018-12-18T13:15:52.876Z,101756.61
2018-12-18T13:18:22.177Z,101760.41
2018-12-18T13:20:51.496Z,101757.41
2018-12-18T13:23:20.886Z,101757.41
2018-12-18T13:25:50.220Z,101753.83
2018-12-18T13:28:19.482Z,101748.65
2018-12-18T13:30:48.874Z,101742.37
2018-12-18T13:33:18.349Z,101738.52
2018-12-18T13:35:47.624Z,101731.58
2018-12-18T13:38:17.186Z,101720.86
2018-12-18T13:40:46.473Z,101714.78
2018-12-18T13:43:15.867Z,101712.49
2018-12-18T13:45:45.311Z,101710.63
2018-12-18T13:48:14.845Z,101707.58
2018-12-18T13:50:44.419Z,101696.83
2018-12-18T13:53:14.056Z,101699.84
2018-12-18T13:55:43.843Z,101691.61
2018-12-18T13:58:13.099Z,101697.32
2018-12-18T14:00:42.493Z,101691.31
2018-12-18T14:03:11.907Z,101701.93
2018-12-18T14:05:41.303Z,101711.59
2018-12-18T14:08:10.607Z,101714.31
2018-12-18T14:10:39.955Z,101705.72
2018-12-18T14:13:09.259Z,101698.35
2018-12-18T14:15:38.702Z,101697.59
2018-12-18T14:18:08.374Z,101707.14
2018-12-18T14:20:37.712Z,101706.67
2018-12-18T14:23:07.024Z,101707.37
2018-12-18T14:25:36.476Z,101711.16
2018-12-18T14:28:05.839Z,101716.93
2018-12-18T14:30:35.194Z,101712.32
2018-12-18T14:33:05.603Z,101719.69
2018-12-18T14:35:36.283Z,101743.59
2018-12-18T14:38:05.825Z,101738.87
2018-12-18T14:40:38.268Z,101737.61
2018-12-18T14:43:07.655Z,101722.89
2018-12-18T14:45:36.955Z,101720.77
2018-12-18T14:48:06.745Z,101723.95
2018-12-18T14:50:36.291Z,101721.45
2018-12-18T14:53:05.610Z,101718.53
2018-12-18T14:55:35.148Z,101722.33
2018-12-18T14:58:05.036Z,101723.03
2018-12-18T15:00:34.635Z,101718.16
2018-12-18T15:03:04.282Z,101713.50
2018-12-18T15:05:33.665Z,101710.78
2018-12-18T15:08:05.337Z,101716.95
2018-12-18T15:10:34.887Z,101705.14
2018-12-18T15:13:04.184Z,101703.81
2018-12-18T15:15:33.655Z,101706.88
2018-12-18T15:18:03.146Z,101711.44
2018-12-18T15:20:32.687Z,101713.50
2018-12-18T15:23:02.189Z,101715.48
2018-12-18T15:25:31.530Z,101715.48
2018-12-18T15:28:00.908Z,101714.77
2018-12-18T15:30:30.560Z,101718.57
2018-12-18T15:33:00.373Z,101715.52
2018-12-18T15:35:30.881Z,101703.64
2018-12-18T15:38:00.728Z,101712.13
2018-12-18T15:40:30.304Z,101704.63
2018-12-18T15:43:00.020Z,101706.02
2018-12-18T15:45:29.395Z,101706.08
2018-12-18T15:47:59.171Z,101693.16
2018-12-18T15:50:29.039Z,101688.41
2018-12-18T15:52:58.680Z,101689.52
2018-12-18T15:55:29.050Z,101690.13
2018-12-18T15:57:58.702Z,101685.41
2018-12-18T16:00:28.477Z,101692.04
2018-12-18T16:02:57.941Z,101684.42
2018-12-18T16:05:27.348Z,101684.95
2018-12-18T16:07:56.833Z,101683.16
2018-12-18T16:10:27.243Z,101695.95
2018-12-18T16:12:56.740Z,101699.84
2018-12-18T16:15:26.387Z,101698.33
2018-12-18T16:17:55.857Z,101692.10
2018-12-18T16:20:25.874Z,101690.84
2018-12-18T16:22:55.777Z,101693.28
2018-12-18T16:25:25.411Z,101696.36
2018-12-18T16:27:55.318Z,101694.70
2018-12-18T16:30:25.083Z,101692.50
2018-12-18T16:32:54.612Z,101693.23
2018-12-18T16:35:23.943Z,101690.50
2018-12-18T16:37:53.548Z,101694.34
2018-12-18T16:40:23.984Z,101695.67
2018-12-18T16:42:54.007Z,101687.13
2018-12-18T16:45:23.608Z,101685.61
2018-12-18T16:47:53.614Z,101682.62
2018-12-18T16:50:26.555Z,101687.00
2018-12-18T16:52:54.508Z,101681.69
2018-12-18T16:55:23.852Z,101685.98
2018-12-18T16:57:54.308Z,101677.72
2018-12-18T17:00:23.960Z,101668.03
2018-12-18T17:02:54.403Z,101677.31
2018-12-18T17:05:23.921Z,101676.70
2018-12-18T17:07:53.431Z,101671.34
2018-12-18T17:10:22.720Z,101673.59
2018-12-18T17:12:56.939Z,101666.10
2018-12-18T17:15:26.450Z,101660.02
2018-12-18T17:17:55.982Z,101661.01
2018-12-18T17:20:26.314Z,101657.44
2018-12-18T17:22:55.612Z,101649.81
2018-12-18T17:25:24.977Z,101646.83
2018-12-18T17:27:54.386Z,101644.52
2018-12-18T17:30:23.669Z,101643.37
2018-12-18T17:32:52.979Z,101634.31
2018-12-18T17:35:23.692Z,101647.02
2018-12-18T17:37:53.033Z,101648.86
2018-12-18T17:40:22.346Z,101650.86
2018-12-18T17:42:51.806Z,101648.16
2018-12-18T17:45:21.435Z,101650.69
2018-12-18T17:47:51.136Z,101652.94
2018-12-18T17:50:20.512Z,101655.49
2018-12-18T17:52:49.786Z,101647.54
2018-12-18T17:55:20.093Z,101645.29
2018-12-18T17:57:49.682Z,101649.88
2018-12-18T18:00:19.009Z,101656.36
2018-12-18T18:02:48.589Z,101658.89
2018-12-18T18:05:18.314Z,101659.75
2018-12-18T18:07:47.793Z,101662.28
2018-12-18T18:10:17.477Z,101663.73
2018-12-18T18:12:48.524Z,101658.83
2018-12-18T18:15:18.373Z,101660.67
2018-12-18T18:17:48.754Z,101657.04
2018-12-18T18:20:18.367Z,101656.05
2018-12-18T18:22:48.295Z,101655.16
2018-12-18T18:25:17.628Z,101653.58
2018-12-18T18:27:47.154Z,101655.31
2018-12-18T18:30:16.591Z,101654.05
2018-12-18T18:32:45.836Z,101648.80
2018-12-18T18:35:15.358Z,101641.53
2018-12-18T18:37:49.666Z,101640.98
2018-12-18T18:40:16.464Z,101631.51
2018-12-18T18:42:45.924Z,101637.61
2018-12-18T18:45:15.448Z,101623.50
2018-12-18T18:47:44.755Z,101623.16
2018-12-18T18:50:14.125Z,101625.01
2018-12-18T18:52:43.455Z,101622.23
2018-12-18T18:55:12.995Z,101625.75
2018-12-18T18:57:42.715Z,101627.31
2018-12-18T19:00:12.280Z,101630.59
2018-12-18T19:02:41.522Z,101632.84
2018-12-18T19:05:10.955Z,101628.06
2018-12-18T19:07:40.544Z,101631.05
2018-12-18T19:10:09.928Z,101622.17
2018-12-18T19:12:39.418Z,101618.59
2018-12-18T19:15:09.055Z,101613.50
2018-12-18T19:17:38.633Z,101606.47
2018-12-18T19:20:08.103Z,101596.00
2018-12-18T19:22:37.572Z,101598.25
2018-12-18T19:25:07.078Z,101588.69
2018-12-18T19:27:36.469Z,101579.51
2018-12-18T19:30:06.076Z,101573.64
2018-12-18T19:32:35.431Z,101571.38
2018-12-18T19:35:05.516Z,101569.26
2018-12-18T19:37:34.881Z,101560.56
2018-12-18T19:40:04.632Z,101565.33
2018-12-18T19:42:34.266Z,101562.80
2018-12-18T19:45:04.593Z,101562.08
2018-12-18T19:47:34.292Z,101563.58
2018-12-18T19:50:03.695Z,101566.09
2018-12-18T19:52:33.235Z,101564.04
2018-12-18T19:55:02.819Z,101560.95
2018-12-18T19:57:32.399Z,101557.45
2018-12-18T20:00:01.916Z,101554.86
2018-12-18T20:02:31.967Z,101564.70
2018-12-18T20:05:01.302Z,101554.19
2018-12-18T20:07:30.557Z,101545.45
2018-12-18T20:09:59.894Z,101550.48
2018-12-18T20:12:29.218Z,101544.56
2018-12-18T20:14:58.596Z,101551.19
2018-12-18T20:17:27.934Z,101545.55
2018-12-18T20:19:57.477Z,101541.28
2018-12-18T20:22:27.264Z,101545.25
2018-12-18T20:24:56.988Z,101536.69
2018-12-18T20:27:26.689Z,101524.03
2018-12-18T20:29:56.058Z,101516.64
2018-12-18T20:32:25.683Z,101511.11
2018-12-18T20:34:55.030Z,101513.70
2018-12-18T20:37:24.372Z,101511.05
2018-12-18T20:39:53.860Z,101507.09
2018-12-18T20:42:23.325Z,101496.97
2018-12-18T20:44:52.727Z,101492.59
2018-12-18T20:47:22.088Z,101485.13
2018-12-18T20:49:51.495Z,101490.41
2018-12-18T20:52:20.877Z,101484.67
2018-12-18T20:54:50.205Z,101476.39
2018-12-18T20:57:19.499Z,101470.18
2018-12-18T20:59:48.816Z,101467.42
2018-12-18T21:02:18.278Z,101465.05
2018-12-18T21:04:47.582Z,101459.33
2018-12-18T21:07:18.293Z,101455.41
2018-12-18T21:09:48.259Z,101452.37
2018-12-18T21:12:18.015Z,101449.20
2018-12-18T21:14:47.452Z,101443.61
2018-12-18T21:17:16.810Z,101436.08
2018-12-18T21:19:46.459Z,101449.23
2018-12-18T21:22:16.320Z,101440.77
2018-12-18T21:24:45.849Z,101442.50
2018-12-18T21:27:15.226Z,101440.77
2018-12-18T21:29:44.502Z,101432.44
2018-12-18T21:32:13.859Z,101438.53
2018-12-18T21:34:43.113Z,101433.90
2018-12-18T21:37:12.323Z,101437.00
2018-12-18T21:39:42.587Z,101441.30
2018-12-18T21:42:11.921Z,101440.77
2018-12-18T21:44:41.588Z,101437.16
2018-12-18T21:47:10.895Z,101432.61
2018-12-18T21:49:41.337Z,101424.91
2018-12-18T21:52:10.768Z,101409.23
2018-12-18T21:54:40.178Z,101407.56
2018-12-18T21:57:09.467Z,101405.84
2018-12-18T21:59:38.809Z,101400.20
2018-12-18T22:02:08.220Z,101400.81
2018-12-18T22:04:37.402Z,101402.13
2018-12-18T22:07:07.084Z,101409.06
2018-12-18T22:09:36.515Z,101401.84
2018-12-18T22:12:06.291Z,101408.51
2018-12-18T22:14:35.618Z,101406.34
2018-12-18T22:17:05.308Z,101410.42
2018-12-18T22:19:35.333Z,101403.01
2018-12-18T22:22:05.717Z,101400.48
2018-12-18T22:24:35.161Z,101395.66
2018-12-18T22:27:05.385Z,101395.27
2018-12-18T22:29:35.209Z,101383.35
2018-12-18T22:32:04.488Z,101384.30
2018-12-18T22:34:33.875Z,101376.31
2018-12-18T22:37:05.887Z,101376.94
2018-12-18T22:39:35.856Z,101358.63
2018-12-18T22:42:05.692Z,101363.16
2018-12-18T22:44:35.723Z,101365.05
2018-12-18T22:47:05.133Z,101352.44
2018-12-18T22:49:34.469Z,101359.39
2018-12-18T22:52:04.288Z,101353.24
2018-12-18T22:54:33.616Z,101348.80
2018-12-18T22:57:06.016Z,101338.71
2018-12-18T22:59:35.486Z,101338.63
2018-12-18T23:02:22.006Z,101345.64
2018-12-18T23:04:53.130Z,101335.98
2018-12-18T23:07:22.537Z,101340.30
2018-12-18T23:09:52.114Z,101336.45
2018-12-18T23:12:21.457Z,101329.38
2018-12-18T23:14:50.933Z,101317.89
2018-12-18T23:17:20.191Z,101318.30
2018-12-18T23:19:49.819Z,101316.25
2018-12-18T23:22:19.176Z,101309.76
2018-12-18T23:24:49.366Z,101307.52
2018-12-18T23:27:19.742Z,101307.23
2018-12-18T23:29:49.358Z,101294.48
2018-12-18T23:32:22.898Z,101284.52
2018-12-18T23:34:54.917Z,101286.69
2018-12-18T23:37:24.203Z,101293.75
2018-12-18T23:39:53.438Z,101286.29
2018-12-18T23:42:22.788Z,101287.09
2018-12-18T23:44:52.189Z,101271.30
2018-12-18T23:47:21.477Z,101272.27
2018-12-18T23:49:50.873Z,101270.55
2018-12-18T23:52:20.404Z,101263.66
2018-12-18T23:54:49.920Z,101258.41
2018-12-18T23:57:19.488Z,101246.97
2018-12-18T23:59:49.145Z,101253.17
